Extreme weather reports worldwide

Low visibility

Station
 
Location
 
Name
 
Wind
Knots
Gust
Knots
Vis
SM
Temp/Dew
C
Baro
inHg
METAR
 
KMWN 34 0 12/12 KMWN 151252Z 26034KT 0SM FG VV000 12/12 RMK SHRAE04
RKNF Noinbong, KR Whang Ryeong Helipad 3 0 16/15 30.29 RKNF 151230Z 12003KT 0000 -DZ FG VV000 16/15 A3029 RMK CIG000
RKPM Mosulpo, KR Mosulpo Airbase Heliport 3 0.06 24/24 29.92 RKPM 151228Z 15003KT 0100 -RA FG VV002 24/24 A2992 RMK CIG002
CAC SBCA Cascavel, BR Cascavel Airport 7 0.06 8/8 30.27 SBCA 151200Z 17007KT 0100 FG OVC001 08/08 Q1025
BRC SAZS San Carlos de Bariloche, AR San Carlos De Bariloche Airport 1 0.06 -3/-4 30.12 SAZS 151200Z 13001KT 0100 R29/0800 FZFG OVC002 M03/M04 Q1020

Station
 
Location
 
Name
 
Wind
Knots
Gust
Knots
Vis
SM
Temp/Dew
C
Baro
inHg
METAR
 
LSQ SCGE Los Angeles, CL María Dolores Airport 0.09 / SCGE 151300Z /////KT 0150 FG VV001 ///// Q////
AKL NZAA Auckland, NZ Auckland International Airport 2 0.09 12/12 29.76 NZAA 151230Z AUTO 36002KT 0150 R23L/1700U R05R/P2000N FG BKN023/// BKN041/// 12/12 Q1008
YAI SCCH Chillan, CL Gral. Bernardo O´Higgins Airport 3 0.12 0/0 30.15 SCCH 151300Z 08003KT 0200 FG VV000 00/00 Q1021
YXZ CYXZ Wawa, CA Wawa Airport 0 0.13 17/17 29.79 CYXZ 151200Z 00000KT 1/8SM FG VV001 17/17 A2979 RMK FG8 SLP090 DENSITY ALT 1600FT
KNA SCVM Viña Del Mar, CL Viña del mar Airport 3 0.19 5/4 30.09 SCVM 151300Z 12003KT 0300 FG OVC001 05/04 Q1019
ZAL SCVD Valdivia, CL Pichoy Airport 3 0.19 1/1 30.15 SCVD 151300Z VRB03KT 0300 FG VV001 01/01 Q1021
ZOS SCJO Osorno, CL Cañal Bajo Carlos - Hott Siebert Airport 1 0.19 3/3 30.15 SCJO 151300Z 03001KT 0300 FG VV000 03/03 Q1021
HIJ RJOA Hiroshima, JP Hiroshima Airport 2 0.19 23/23 30.00 RJOA 151246Z VRB02KT 0300 R28/0325VP2000D FG VV001 23/23 Q1016 RMK A3001
SCSN Santo Domingo, CL Santo Domingo Airport 5 0.22 3/3 30.12 SCSN 151300Z 18005KT 140V220 0350 FG OVC002 03/03 Q1020
SCIC Curico, CL General Freire Airport 0 0.25 0/0 30.12 SCIC 151300Z 00000KT 0400 FG VV002 M00/M00 Q1020
PAZK 8 0.25 2/2 29.77 PAZK 151256Z AUTO 26008KT M1/4SM FG OVC002 03/03 A2977 RMK AO2 SLP101 T00280028 $
ADK PADK Adak Island, US Adak Airport 0 0.25 7/7 29.95 PADK 151256Z AUTO 00000KT M1/4SM FG OVC002 08/07 A2995 RMK AO2 SLP143 T00780072 $
KSMP 5 0.25 10/10 30.14 KSMP 151256Z AUTO 23005KT 1/4SM FG VV001 10/10 A3014 RMK AO2 SLP183 T01000100
KY51 0 0.25 21/21 29.86 KY51 151255Z AUTO 00000KT M1/4SM OVC001 22/21 A2986 RMK AO2 T02160213
TKF KTRK Truckee, US Truckee Tahoe Airport 0 0.25 5/5 30.37 KTRK 151255Z AUTO 00000KT M1/4SM FG OVC001 05/05 A3037 RMK AO2
KRGK Red Wing, US Red Wing Regional Airport 4 0.25 22/21 29.79 KRGK 151255Z AUTO 12004KT M1/4SM -DZ OVC002 22/21 A2979 RMK AO2 LTG DSNT W
KOLZ Oelwein, US Oelwein Municipal Airport 5 0.25 21/21 29.85 KOLZ 151255Z AUTO 14005KT M1/4SM FG OVC002 21/21 A2985 RMK A01
DEH KDEH Decorah, US Decorah Municipal Airport 0 0.25 23/23 29.83 KDEH 151255Z AUTO 00000KT M1/4SM FG OVC002 23/23 A2983 RMK AO2
CCY KCCY Charles City, US Northeast Iowa Regional Airport 0 0.25 23/23 29.85 KCCY 151255Z AUTO 00000KT M1/4SM FG OVC002 23/23 A2985 RMK AO2
KBCK Black River Falls, US Black River Falls Area Airport 0 0.25 21/21 29.83 KBCK 151255Z AUTO 00000KT M1/4SM FG OVC002 22/22 A2983 RMK AO2 T02180218
K6S2 0 0.25 12/12 30.11 K6S2 151255Z AUTO 00000KT M1/4SM FG OVC001 12/12 A3011 RMK AO2
LSE KLSE La Crosse, US La Crosse Municipal Airport 4 0.25 23/22 29.81 KLSE 151253Z 10004KT 1/4SM FG VV002 23/22 A2981 RMK AO2 SLP083 T02330222
AVX KAVX Avalon, US Catalina Airport 5 0.25 13/13 30.07 KAVX 151251Z AUTO 23005KT 1/4SM FG VV001 14/14 A3007 RMK AO2 SLP169 T01390139 $
LTX SELT Latacunga, EC Cotopaxi International Airport 13 0.31 6/6 30.53 SELT 151300Z 18013KT 0500 FG BKN003 06/06 Q1034
ZCO SCQP Temuco, CL La Araucanía Airport 2 0.31 0/0 30.18 SCQP 151300Z VRB02KT 0500 R01/0600N FG FEW001 OVC004 00/00 Q1022
SCIR Isla Robinson Crusoe, CL Robinson Crusoe Airport 9 0.31 12/12 30.24 SCIR 151300Z 32009KT 0500 FG OVC003 12/12 Q1024
PPB SBDN Presidente Prudente, BR Presidente Prudente Airport 0 0.31 12/11 30.24 SBDN 151200Z 00000KT 0500 FG VV002 12/11 Q1024
TAK RJOT Takamatsu, JP Takamatsu Airport 2 0.37 24/24 29.97 RJOT 151248Z VRB02KT 0600 R26/0900V1200N FG FEW000 SCT001 BKN002 24/24 Q1015 RMK 1ST000 3ST001 5ST002 A2998
CYBW Calgary, CA Calgary / Springbank Airport 2 0.5 10/10 30.01 CYBW 151258Z AUTO VRB02KT 1/2SM R35/P6000FT/U FG BKN001 BKN210 BKN230 10/10 A3001 RMK SLP178 DENSITY ALT 4300FT
CEC KCEC Crescent City, US Jack Mc Namara Field Airport 4 0.5 10/10 30.04 KCEC 151256Z AUTO 20004KT 1/2SM FG VV002 11/11 A3004 RMK AO2 SLP173 T01060106 $
KLHB Hearne, US Hearne Municipal Airport 0 0.5 24/24 30.10 KLHB 151255Z AUTO 00000KT 1/2SM FG OVC002 25/24 A3010 RMK AO2 T02490242
KJYG St James, US St James Municipal Airport 17 27 0.5 22/22 29.88 KJYG 151255Z AUTO 04017G27KT 1/2SM +TSRA FG BKN002 BKN008 OVC026 22/22 A2988 RMK AO2 LTG DSNT ALQDS P0031
RFD KRFD Chicago/Rockford, US Chicago Rockford International Airport 5 0.5 20/20 29.89 KRFD 151254Z 17005KT 1/2SM FG OVC001 21/21 A2989 RMK AO2 TWR VIS 1 SLP115 T02060206 RVRNO
ACV KACV Arcata/Eureka, US California Redwood Coast-Humboldt County Airport 4 0.5 9/8 30.03 KACV 151253Z AUTO 14004KT 1/2SM R32/2400V5500FT FG VV002 09/09 A3003 RMK AO2 SLP176 T00940089
YQK CYQK Kenora, CA Kenora Airport 9 0.5 16/16 29.78 CYQK 151223Z 34009KT 320V050 1/2SM TSRA BKN003CB 16/16 A2978 RMK CB7 LTGCCCG PRESRR SLP084 DENSITY ALT 2000FT
YSF CYSF Stony Rapids, CA Stony Rapids Airport 3 0.5 5/5 29.91 CYSF 151200Z AUTO 12003KT 1/2SM FG VV001 05/05 A2991 RMK SLP139
FFU SCFT Futaleufu, CL Futaleufú Airport 3 0.56 -2/-2 30.12 SCFT 151300Z 13003KT 090V150 0900 FZFG VV001 M02/M02 Q1020
SAG VASD Shirdi, IN Shirdi Airport 6 0.75 23/23 29.59 VASD 151300Z 28006KT 1200 R27/P2000 R09/P2000 RA SCT015 BKN020 OVC080 23/23 Q1002 NO SIG
OTH KOTH North Bend, US Southwest Oregon Regional Airport 7 0.75 / 30.13 KOTH 151256Z AUTO 33007KT 3/4SM BR OVC003 A3013 RMK AO2 SLPNO FZRANO RVRNO $
KJDD Mineola/Quitman, US Wood County Airport - Collins Field 7 0.75 26/25 30.07 KJDD 151255Z AUTO 20007KT 3/4SM BR VV005 26/25 A3007 RMK AO2 VIS 1/2V3
YYQ CYYQ Churchill, CA Churchill Airport 11 0.75 1/1 29.85 CYYQ 151200Z 04011KT 3/4SM R33/P6000FT/N -RA BR VV005 01/01 A2985 RMK FG8 VIS VRB 1/2 - 1 SLP112
OKJ RJOB Okayama, JP Okayama Momotaro Airport 1 0.93 23/22 29.97 RJOB 151238Z VRB01KT 1500 R07/1200VP2000U BR BCFG FEW000 SCT002 BKN045 23/22 Q1015 RMK 1ST000 3ST002 5SC045 A2998 FG ALL QUAD
TRV VOTV Thiruvananthapuram, IN Trivandrum International Airport 15 25 0.93 24/22 29.73 VOTV 151230Z 33015G25KT 1500 +RA FEW008 SCT012 FEW025CB BKN080 24/22 Q1007 TEMPO 800 +RA
ORK EICK Cork, IE Cork Airport 9 0.93 13/13 29.70 EICK 151230Z 06009KT 1500 -RA SCT001 BKN002 13/13 Q1006 TEMPO BKN001
QHP SBTA Taubaté, BR Base de Aviação de Taubaté Airport 1 0.93 15/15 30.30 SBTA 151200Z VRB01KT 1500 BR OVC004 15/15 Q1026